Holmquist, South Dakota
Current Conditions -  °F | °C
As of 4:53 AM on Saturday 25 Oct 2014 (Local Time) from KATY Reporting Station
Clear Clear  
Wind Chill: 50°   Ceiling: Unl
Heat Index: 50°   Visibility: 10mi
Dew Point: 36°   Wind: 8mph
Humidity: 59%   Direction: 310°NW
Pressure: 30.07"   Gusts: NA
Location:  45.2988°N, 97.5074°W
Report Text: KATY 250953Z AUTO 31007KT 10SM CLR 10/02 A3007 RMK AO2 SLP182 T01000022 $
Loading
Personal Weather Stations






























Interactive Weather Map
Tropical Storm Tracking
New forecast layout! Learn more

10-Day Weather Forecast

Advertisements
Track Severe Weather on mobile